Amistad, New Mexico
Current Conditions -  °F | °C
As of 9:53 AM on Tuesday 21 Oct 2014 (Local Time) from KDHT Reporting Station
Clear Clear  
Wind Chill: 68°   Ceiling: Unl
Heat Index: 68°   Visibility: 10mi
Dew Point: 50°   Wind: 12mph
Humidity: 52%   Direction: 220°SW
Pressure: 30.15"   Gusts: NA
Location:  35.92°N, 103.16°W
Report Text: KDHT 211553Z AUTO 22010KT 10SM CLR 20/10 A3015 RMK AO2 SLP171 T02000100
Loading
Personal Weather Stations






























Interactive Weather Map
Tropical Storm Tracking
New forecast layout! Learn more

10-Day Weather Forecast

Advertisements
Track Severe Weather on mobile